sensor_id;sensor_type;location;lat;lon;timestamp;pressure;altitude;pressure_sealevel;temperature;humidity
1726;BME280;41776;48.260;8.928;2023-05-01T00:00:56;52424.59;;;-145.69;100.00
1726;BME280;41776;48.260;8.928;2023-05-01T00:03:25;52444.38;;;-145.69;100.00
1726;BME280;41776;48.260;8.928;2023-05-01T00:05:58;52448.34;;;-145.69;100.00
1726;BME280;41776;48.260;8.928;2023-05-01T00:08:24;52448.34;;;-145.69;100.00
1726;BME280;41776;48.260;8.928;2023-05-01T00:10:51;52444.38;;;-145.69;100.00
1726;BME280;41776;48.260;8.928;2023-05-01T00:13:18;52440.44;;;-145.69;100.00
1726;BME280;41776;48.260;8.928;2023-05-01T00:15:46;52456.28;;;-145.69;100.00
1726;BME280;41776;48.260;8.928;2023-05-01T00:18:13;52444.38;;;-145.69;100.00
1726;BME280;41776;48.260;8.928;2023-05-01T00:20:41;52440.44;;;-145.69;100.00
1726;BME280;41776;48.260;8.928;2023-05-01T00:23:07;52446.38;;;-145.69;100.00
1726;BME280;41776;48.260;8.928;2023-05-01T00:25:33;52460.22;;;-145.69;100.00
1726;BME280;41776;48.260;8.928;2023-05-01T00:28:00;52456.28;;;-145.69;100.00
1726;BME280;41776;48.260;8.928;2023-05-01T00:30:27;52416.66;;;-145.69;100.00
1726;BME280;41776;48.260;8.928;2023-05-01T00:32:53;52448.34;;;-145.69;100.00
1726;BME280;41776;48.260;8.928;2023-05-01T00:35:20;52448.34;;;-145.69;100.00
1726;BME280;41776;48.260;8.928;2023-05-01T00:37:48;52424.59;;;-145.69;100.00
1726;BME280;41776;48.260;8.928;2023-05-01T00:40:14;52418.63;;;-145.69;100.00
1726;BME280;41776;48.260;8.928;2023-05-01T00:42:41;52408.75;;;-145.69;100.00
1726;BME280;41776;48.260;8.928;2023-05-01T00:45:08;52456.28;;;-145.69;100.00
1726;BME280;41776;48.260;8.928;2023-05-01T00:47:35;52420.63;;;-145.69;100.00
1726;BME280;41776;48.260;8.928;2023-05-01T00:50:02;52432.50;;;-145.69;100.00
1726;BME280;41776;48.260;8.928;2023-05-01T00:52:29;52406.75;;;-145.69;100.00
1726;BME280;41776;48.260;8.928;2023-05-01T00:54:57;52402.78;;;-145.69;100.00
1726;BME280;41776;48.260;8.928;2023-05-01T00:57:24;52404.78;;;-145.69;100.00
1726;BME280;41776;48.260;8.928;2023-05-01T00:59:51;52428.53;;;-145.69;100.00
1726;BME280;41776;48.260;8.928;2023-05-01T01:02:17;52446.38;;;-145.69;100.00
1726;BME280;41776;48.260;8.928;2023-05-01T01:04:45;52444.38;;;-145.69;100.00
1726;BME280;41776;48.260;8.928;2023-05-01T01:07:17;52446.38;;;-145.69;100.00
1726;BME280;41776;48.260;8.928;2023-05-01T01:09:54;52408.75;;;-145.69;100.00
1726;BME280;41776;48.260;8.928;2023-05-01T01:12:28;52396.84;;;-145.69;100.00
1726;BME280;41776;48.260;8.928;2023-05-01T01:15:00;52408.75;;;-145.69;100.00
1726;BME280;41776;48.260;8.928;2023-05-01T01:17:32;52440.44;;;-145.69;100.00
1726;BME280;41776;48.260;8.928;2023-05-01T01:20:22;52373.09;;;-145.69;100.00
1726;BME280;41776;48.260;8.928;2023-05-01T01:22:57;52452.31;;;-145.69;100.00
1726;BME280;41776;48.260;8.928;2023-05-01T01:25:49;52418.63;;;-145.69;100.00
1726;BME280;41776;48.260;8.928;2023-05-01T01:28:38;52482.00;;;-145.69;100.00
1726;BME280;41776;48.260;8.928;2023-05-01T01:31:16;52442.41;;;-145.69;100.00
1726;BME280;41776;48.260;8.928;2023-05-01T01:34:08;52448.34;;;-145.69;100.00
1726;BME280;41776;48.260;8.928;2023-05-01T01:36:42;52428.53;;;-145.69;100.00
1726;BME280;41776;48.260;8.928;2023-05-01T01:39:13;52438.44;;;-145.69;100.00
1726;BME280;41776;48.260;8.928;2023-05-01T01:41:44;52420.63;;;-145.69;100.00
1726;BME280;41776;48.260;8.928;2023-05-01T01:44:18;52440.44;;;-145.69;100.00
1726;BME280;41776;48.260;8.928;2023-05-01T01:46:47;52428.53;;;-145.69;100.00
1726;BME280;41776;48.260;8.928;2023-05-01T01:49:19;52452.31;;;-145.69;100.00
1726;BME280;41776;48.260;8.928;2023-05-01T01:51:47;52444.38;;;-145.69;100.00
1726;BME280;41776;48.260;8.928;2023-05-01T01:54:18;52450.31;;;-145.69;100.00
1726;BME280;41776;48.260;8.928;2023-05-01T01:56:46;52416.66;;;-145.69;100.00
1726;BME280;41776;48.260;8.928;2023-05-01T01:59:14;52420.63;;;-145.69;100.00
1726;BME280;41776;48.260;8.928;2023-05-01T02:01:42;52410.72;;;-145.69;100.00
1726;BME280;41776;48.260;8.928;2023-05-01T02:04:10;52440.44;;;-145.69;100.00
1726;BME280;41776;48.260;8.928;2023-05-01T02:06:39;52428.53;;;-145.69;100.00
1726;BME280;41776;48.260;8.928;2023-05-01T02:09:07;52460.22;;;-145.69;100.00
1726;BME280;41776;48.260;8.928;2023-05-01T02:11:35;52440.44;;;-145.69;100.00
1726;BME280;41776;48.260;8.928;2023-05-01T02:14:04;52460.22;;;-145.69;100.00
1726;BME280;41776;48.260;8.928;2023-05-01T02:16:33;52484.00;;;-145.69;100.00
1726;BME280;41776;48.260;8.928;2023-05-01T02:19:02;52476.06;;;-145.69;100.00
1726;BME280;41776;48.260;8.928;2023-05-01T02:21:29;52396.84;;;-145.69;100.00
1726;BME280;41776;48.260;8.928;2023-05-01T02:23:59;52442.41;;;-145.69;100.00
1726;BME280;41776;48.260;8.928;2023-05-01T02:26:27;52464.19;;;-145.69;100.00
1726;BME280;41776;48.260;8.928;2023-05-01T02:28:54;52434.47;;;-145.69;100.00
1726;BME280;41776;48.260;8.928;2023-05-01T02:31:21;52416.66;;;-145.69;100.00
1726;BME280;41776;48.260;8.928;2023-05-01T02:33:48;52428.53;;;-145.69;100.00
1726;BME280;41776;48.260;8.928;2023-05-01T02:36:14;52454.28;;;-145.69;100.00
1726;BME280;41776;48.260;8.928;2023-05-01T02:38:41;52446.38;;;-145.69;100.00
1726;BME280;41776;48.260;8.928;2023-05-01T02:41:09;52408.75;;;-145.69;100.00
1726;BME280;41776;48.260;8.928;2023-05-01T02:43:38;52422.59;;;-145.69;100.00
1726;BME280;41776;48.260;8.928;2023-05-01T02:46:08;52452.31;;;-145.69;100.00
1726;BME280;41776;48.260;8.928;2023-05-01T02:48:36;52448.34;;;-145.69;100.00
1726;BME280;41776;48.260;8.928;2023-05-01T02:51:04;52428.53;;;-145.69;100.00
1726;BME280;41776;48.260;8.928;2023-05-01T02:53:31;52448.34;;;-145.69;100.00
1726;BME280;41776;48.260;8.928;2023-05-01T02:55:58;52476.06;;;-145.69;100.00
1726;BME280;41776;48.260;8.928;2023-05-01T02:58:30;52450.31;;;-145.69;100.00
1726;BME280;41776;48.260;8.928;2023-05-01T03:00:57;52460.22;;;-145.69;100.00
1726;BME280;41776;48.260;8.928;2023-05-01T03:03:24;52442.41;;;-145.69;100.00
1726;BME280;41776;48.260;8.928;2023-05-01T03:05:50;52424.59;;;-145.69;100.00
1726;BME280;41776;48.260;8.928;2023-05-01T03:08:16;52452.31;;;-145.69;100.00
1726;BME280;41776;48.260;8.928;2023-05-01T03:10:43;52444.38;;;-145.69;100.00
1726;BME280;41776;48.260;8.928;2023-05-01T03:13:10;52448.34;;;-145.69;100.00
1726;BME280;41776;48.260;8.928;2023-05-01T03:15:38;52456.28;;;-145.69;100.00
1726;BME280;41776;48.260;8.928;2023-05-01T03:18:05;52434.47;;;-145.69;100.00
1726;BME280;41776;48.260;8.928;2023-05-01T03:20:31;52448.34;;;-145.69;100.00
1726;BME280;41776;48.260;8.928;2023-05-01T03:22:58;52440.44;;;-145.69;100.00
1726;BME280;41776;48.260;8.928;2023-05-01T03:25:24;52458.25;;;-145.69;100.00
1726;BME280;41776;48.260;8.928;2023-05-01T03:27:51;52436.47;;;-145.69;100.00
1726;BME280;41776;48.260;8.928;2023-05-01T03:30:17;52476.06;;;-145.69;100.00
1726;BME280;41776;48.260;8.928;2023-05-01T03:32:45;52452.31;;;-145.69;100.00
1726;BME280;41776;48.260;8.928;2023-05-01T03:35:12;52470.13;;;-145.69;100.00
1726;BME280;41776;48.260;8.928;2023-05-01T03:37:38;52484.00;;;-145.69;100.00
1726;BME280;41776;48.260;8.928;2023-05-01T03:40:06;52472.13;;;-145.69;100.00
1726;BME280;41776;48.260;8.928;2023-05-01T03:42:32;52456.28;;;-145.69;100.00
1726;BME280;41776;48.260;8.928;2023-05-01T03:44:59;52497.84;;;-145.69;100.00
1726;BME280;41776;48.260;8.928;2023-05-01T03:47:25;52478.06;;;-145.69;100.00
1726;BME280;41776;48.260;8.928;2023-05-01T03:49:53;52480.03;;;-145.69;100.00
1726;BME280;41776;48.260;8.928;2023-05-01T03:52:19;52507.75;;;-145.69;100.00
1726;BME280;41776;48.260;8.928;2023-05-01T03:54:46;52478.06;;;-145.69;100.00
1726;BME280;41776;48.260;8.928;2023-05-01T03:57:14;52452.31;;;-145.69;100.00
1726;BME280;41776;48.260;8.928;2023-05-01T03:59:40;52448.34;;;-145.69;100.00
1726;BME280;41776;48.260;8.928;2023-05-01T04:02:08;52482.00;;;-145.69;100.00
1726;BME280;41776;48.260;8.928;2023-05-01T04:04:35;52480.03;;;-145.69;100.00
1726;BME280;41776;48.260;8.928;2023-05-01T04:07:03;52468.16;;;-145.69;100.00
1726;BME280;41776;48.260;8.928;2023-05-01T04:09:30;52464.19;;;-145.69;100.00
1726;BME280;41776;48.260;8.928;2023-05-01T04:11:56;52466.16;;;-145.69;100.00
1726;BME280;41776;48.260;8.928;2023-05-01T04:14:23;52484.00;;;-145.69;100.00
1726;BME280;41776;48.260;8.928;2023-05-01T04:16:50;52485.97;;;-145.69;100.00
1726;BME280;41776;48.260;8.928;2023-05-01T04:19:16;52476.06;;;-145.69;100.00
1726;BME280;41776;48.260;8.928;2023-05-01T04:21:43;52452.31;;;-145.69;100.00
1726;BME280;41776;48.260;8.928;2023-05-01T04:24:10;52468.16;;;-145.69;100.00
1726;BME280;41776;48.260;8.928;2023-05-01T04:26:37;52484.00;;;-145.69;100.00
1726;BME280;41776;48.260;8.928;2023-05-01T04:29:03;52476.06;;;-145.69;100.00
1726;BME280;41776;48.260;8.928;2023-05-01T04:31:30;52472.13;;;-145.69;100.00
1726;BME280;41776;48.260;8.928;2023-05-01T04:33:56;52468.16;;;-145.69;100.00
1726;BME280;41776;48.260;8.928;2023-05-01T04:36:23;52480.03;;;-145.69;100.00
1726;BME280;41776;48.260;8.928;2023-05-01T04:38:49;52462.22;;;-145.69;100.00
1726;BME280;41776;48.260;8.928;2023-05-01T04:41:17;52464.19;;;-145.69;100.00
1726;BME280;41776;48.260;8.928;2023-05-01T04:43:44;52460.22;;;-145.69;100.00
1726;BME280;41776;48.260;8.928;2023-05-01T04:46:10;52440.44;;;-145.69;100.00
1726;BME280;41776;48.260;8.928;2023-05-01T04:48:37;52503.81;;;-145.69;100.00
1726;BME280;41776;48.260;8.928;2023-05-01T04:51:03;52464.19;;;-145.69;100.00
1726;BME280;41776;48.260;8.928;2023-05-01T04:53:30;52450.31;;;-145.69;100.00
1726;BME280;41776;48.260;8.928;2023-05-01T04:55:57;52497.84;;;-145.69;100.00
1726;BME280;41776;48.260;8.928;2023-05-01T04:58:24;52462.22;;;-145.69;100.00
1726;BME280;41776;48.260;8.928;2023-05-01T05:00:51;52448.34;;;-145.69;100.00
1726;BME280;41776;48.260;8.928;2023-05-01T05:03:17;52470.13;;;-145.69;100.00
1726;BME280;41776;48.260;8.928;2023-05-01T05:05:44;52487.97;;;-145.69;100.00
1726;BME280;41776;48.260;8.928;2023-05-01T05:08:10;52468.16;;;-145.69;100.00
1726;BME280;41776;48.260;8.928;2023-05-01T05:10:37;52485.97;;;-145.69;100.00
1726;BME280;41776;48.260;8.928;2023-05-01T05:13:03;52487.97;;;-145.69;100.00
1726;BME280;41776;48.260;8.928;2023-05-01T05:15:31;52448.34;;;-145.69;100.00
1726;BME280;41776;48.260;8.928;2023-05-01T05:17:58;52478.06;;;-145.69;100.00
1726;BME280;41776;48.260;8.928;2023-05-01T05:20:24;52484.00;;;-145.69;100.00
1726;BME280;41776;48.260;8.928;2023-05-01T05:22:51;52476.06;;;-145.69;100.00
1726;BME280;41776;48.260;8.928;2023-05-01T05:25:17;52464.19;;;-145.69;100.00
1726;BME280;41776;48.260;8.928;2023-05-01T05:27:44;52476.06;;;-145.69;100.00
1726;BME280;41776;48.260;8.928;2023-05-01T05:30:11;52472.13;;;-145.69;100.00
1726;BME280;41776;48.260;8.928;2023-05-01T05:32:39;52484.00;;;-145.69;100.00
1726;BME280;41776;48.260;8.928;2023-05-01T05:35:05;52485.97;;;-145.69;100.00
1726;BME280;41776;48.260;8.928;2023-05-01T05:37:32;52503.81;;;-145.69;100.00
1726;BME280;41776;48.260;8.928;2023-05-01T05:39:58;52511.72;;;-145.69;100.00
1726;BME280;41776;48.260;8.928;2023-05-01T05:42:25;52515.69;;;-145.69;100.00
1726;BME280;41776;48.260;8.928;2023-05-01T05:44:51;52468.16;;;-145.69;100.00
1726;BME280;41776;48.260;8.928;2023-05-01T05:47:18;52489.94;;;-145.69;100.00
1726;BME280;41776;48.260;8.928;2023-05-01T05:49:46;52468.16;;;-145.69;100.00
1726;BME280;41776;48.260;8.928;2023-05-01T05:52:12;52468.16;;;-145.69;100.00
1726;BME280;41776;48.260;8.928;2023-05-01T05:54:39;52464.19;;;-145.69;100.00
1726;BME280;41776;48.260;8.928;2023-05-01T05:57:05;52472.13;;;-145.69;100.00
1726;BME280;41776;48.260;8.928;2023-05-01T05:59:32;52478.06;;;-145.69;100.00
1726;BME280;41776;48.260;8.928;2023-05-01T06:01:58;52462.22;;;-145.69;100.00
1726;BME280;41776;48.260;8.928;2023-05-01T06:04:25;52458.25;;;-145.69;100.00
1726;BME280;41776;48.260;8.928;2023-05-01T06:06:53;52426.56;;;-145.69;100.00
1726;BME280;41776;48.260;8.928;2023-05-01T06:09:19;52482.00;;;-145.69;100.00
1726;BME280;41776;48.260;8.928;2023-05-01T06:11:46;52420.63;;;-145.69;100.00
1726;BME280;41776;48.260;8.928;2023-05-01T06:14:12;52476.06;;;-145.69;100.00
1726;BME280;41776;48.260;8.928;2023-05-01T06:16:39;52466.16;;;-145.69;100.00
1726;BME280;41776;48.260;8.928;2023-05-01T06:19:06;52430.53;;;-145.69;100.00
1726;BME280;41776;48.260;8.928;2023-05-01T06:21:34;52444.38;;;-145.69;100.00
1726;BME280;41776;48.260;8.928;2023-05-01T06:24:02;52426.56;;;-145.69;100.00
1726;BME280;41776;48.260;8.928;2023-05-01T06:26:29;52428.53;;;-145.69;100.00
1726;BME280;41776;48.260;8.928;2023-05-01T06:28:55;52420.63;;;-145.69;100.00
1726;BME280;41776;48.260;8.928;2023-05-01T06:31:21;52456.28;;;-145.69;100.00
1726;BME280;41776;48.260;8.928;2023-05-01T06:33:48;52438.44;;;-145.69;100.00
1726;BME280;41776;48.260;8.928;2023-05-01T06:36:15;52468.16;;;-145.69;100.00
1726;BME280;41776;48.260;8.928;2023-05-01T06:38:41;52396.84;;;-145.69;100.00
1726;BME280;41776;48.260;8.928;2023-05-01T06:41:14;52412.69;;;-145.69;100.00
1726;BME280;41776;48.260;8.928;2023-05-01T06:43:40;52436.47;;;-145.69;100.00
1726;BME280;41776;48.260;8.928;2023-05-01T06:46:07;52464.19;;;-145.69;100.00
1726;BME280;41776;48.260;8.928;2023-05-01T06:48:33;52418.63;;;-145.69;100.00
1726;BME280;41776;48.260;8.928;2023-05-01T06:51:00;52446.38;;;-145.69;100.00
1726;BME280;41776;48.260;8.928;2023-05-01T06:53:26;52442.41;;;-145.69;100.00
1726;BME280;41776;48.260;8.928;2023-05-01T06:55:53;52440.44;;;-145.69;100.00
1726;BME280;41776;48.260;8.928;2023-05-01T06:58:20;52404.78;;;-145.69;100.00
1726;BME280;41776;48.260;8.928;2023-05-01T07:00:47;52414.69;;;-145.69;100.00
1726;BME280;41776;48.260;8.928;2023-05-01T07:03:13;52422.59;;;-145.69;100.00
1726;BME280;41776;48.260;8.928;2023-05-01T07:05:40;52410.72;;;-145.69;100.00
1726;BME280;41776;48.260;8.928;2023-05-01T07:08:06;52406.75;;;-145.69;100.00
1726;BME280;41776;48.260;8.928;2023-05-01T07:10:33;52390.91;;;-145.69;100.00
1726;BME280;41776;48.260;8.928;2023-05-01T07:13:00;52398.84;;;-145.69;100.00
1726;BME280;41776;48.260;8.928;2023-05-01T07:15:28;52430.53;;;-145.69;100.00
1726;BME280;41776;48.260;8.928;2023-05-01T07:17:55;52428.53;;;-145.69;100.00
1726;BME280;41776;48.260;8.928;2023-05-01T07:20:22;52408.75;;;-145.69;100.00
1726;BME280;41776;48.260;8.928;2023-05-01T07:22:48;52420.63;;;-145.69;100.00
1726;BME280;41776;48.260;8.928;2023-05-01T07:25:15;52420.63;;;-145.69;100.00
1726;BME280;41776;48.260;8.928;2023-05-01T07:27:42;52440.44;;;-145.69;100.00
1726;BME280;41776;48.260;8.928;2023-05-01T07:30:09;52432.50;;;-145.69;100.00
1726;BME280;41776;48.260;8.928;2023-05-01T07:32:37;52424.59;;;-145.69;100.00
1726;BME280;41776;48.260;8.928;2023-05-01T07:35:05;52440.44;;;-145.69;100.00
1726;BME280;41776;48.260;8.928;2023-05-01T07:37:32;52406.75;;;-145.69;100.00
1726;BME280;41776;48.260;8.928;2023-05-01T07:39:58;52377.06;;;-145.69;100.00
1726;BME280;41776;48.260;8.928;2023-05-01T07:42:25;52400.81;;;-145.69;100.00
1726;BME280;41776;48.260;8.928;2023-05-01T07:44:52;52394.88;;;-145.69;100.00
1726;BME280;41776;48.260;8.928;2023-05-01T07:47:18;52408.75;;;-145.69;100.00
1726;BME280;41776;48.260;8.928;2023-05-01T07:49:46;52396.84;;;-145.69;100.00
1726;BME280;41776;48.260;8.928;2023-05-01T07:52:14;52375.06;;;-145.69;100.00
1726;BME280;41776;48.260;8.928;2023-05-01T07:54:40;52402.78;;;-145.69;100.00
1726;BME280;41776;48.260;8.928;2023-05-01T07:57:07;52359.22;;;-145.69;100.00
1726;BME280;41776;48.260;8.928;2023-05-01T07:59:33;52392.91;;;-145.69;96.27
1726;BME280;41776;48.260;8.928;2023-05-01T08:02:00;52381.00;;;-145.69;98.58
1726;BME280;41776;48.260;8.928;2023-05-01T08:04:26;52361.22;;;-145.69;98.36
1726;BME280;41776;48.260;8.928;2023-05-01T08:06:54;52375.06;;;-145.69;100.00
1726;BME280;41776;48.260;8.928;2023-05-01T08:09:21;52361.22;;;-145.69;94.91
1726;BME280;41776;48.260;8.928;2023-05-01T08:11:47;52359.22;;;-145.69;100.00
1726;BME280;41776;48.260;8.928;2023-05-01T08:14:14;52406.75;;;-145.69;100.00
1726;BME280;41776;48.260;8.928;2023-05-01T08:16:41;52369.13;;;-145.69;100.00
1726;BME280;41776;48.260;8.928;2023-05-01T08:19:08;52398.84;;;-145.69;100.00
1726;BME280;41776;48.260;8.928;2023-05-01T08:21:34;52386.97;;;-145.69;100.00
1726;BME280;41776;48.260;8.928;2023-05-01T08:24:02;52361.22;;;-145.69;100.00
1726;BME280;41776;48.260;8.928;2023-05-01T08:26:29;52373.09;;;-145.69;100.00
1726;BME280;41776;48.260;8.928;2023-05-01T08:28:55;52377.06;;;-145.69;100.00
1726;BME280;41776;48.260;8.928;2023-05-01T08:31:22;52375.06;;;-145.69;100.00
1726;BME280;41776;48.260;8.928;2023-05-01T08:33:49;52394.88;;;-145.69;100.00
1726;BME280;41776;48.260;8.928;2023-05-01T08:36:15;52402.78;;;-145.69;100.00
1726;BME280;41776;48.260;8.928;2023-05-01T08:38:42;52406.75;;;-145.69;100.00
1726;BME280;41776;48.260;8.928;2023-05-01T08:41:14;52408.75;;;-145.69;100.00
1726;BME280;41776;48.260;8.928;2023-05-01T08:43:41;52381.00;;;-145.69;100.00
1726;BME280;41776;48.260;8.928;2023-05-01T08:46:08;52418.63;;;-145.69;100.00
1726;BME280;41776;48.260;8.928;2023-05-01T08:48:35;52390.91;;;-145.69;100.00
1726;BME280;41776;48.260;8.928;2023-05-01T08:51:04;52388.94;;;-145.69;100.00
1726;BME280;41776;48.260;8.928;2023-05-01T08:53:32;52396.84;;;-145.69;100.00
1726;BME280;41776;48.260;8.928;2023-05-01T08:56:00;52377.06;;;-145.69;100.00
1726;BME280;41776;48.260;8.928;2023-05-01T08:58:28;52404.78;;;-145.69;100.00
1726;BME280;41776;48.260;8.928;2023-05-01T09:00:56;52406.75;;;-145.69;100.00
1726;BME280;41776;48.260;8.928;2023-05-01T09:03:26;52410.72;;;-145.69;100.00
1726;BME280;41776;48.260;8.928;2023-05-01T09:05:53;52377.06;;;-145.69;100.00
1726;BME280;41776;48.260;8.928;2023-05-01T09:08:19;52377.06;;;-145.69;100.00
1726;BME280;41776;48.260;8.928;2023-05-01T09:10:47;52408.75;;;-145.69;100.00
1726;BME280;41776;48.260;8.928;2023-05-01T09:13:14;52410.72;;;-145.69;100.00
1726;BME280;41776;48.260;8.928;2023-05-01T09:15:42;52381.00;;;-145.69;100.00
1726;BME280;41776;48.260;8.928;2023-05-01T09:18:09;52412.69;;;-145.69;100.00
1726;BME280;41776;48.260;8.928;2023-05-01T09:20:37;52416.66;;;-145.69;100.00
1726;BME280;41776;48.260;8.928;2023-05-01T09:23:03;52377.06;;;-145.69;100.00
1726;BME280;41776;48.260;8.928;2023-05-01T09:25:30;52361.22;;;-145.69;100.00
1726;BME280;41776;48.260;8.928;2023-05-01T09:27:57;52384.97;;;-145.69;100.00
1726;BME280;41776;48.260;8.928;2023-05-01T09:30:33;52398.84;;;-145.69;100.00
1726;BME280;41776;48.260;8.928;2023-05-01T09:33:09;52412.69;;;-145.69;100.00
1726;BME280;41776;48.260;8.928;2023-05-01T09:35:52;52390.91;;;-145.69;100.00
1726;BME280;41776;48.260;8.928;2023-05-01T09:38:20;52422.59;;;-145.69;100.00
1726;BME280;41776;48.260;8.928;2023-05-01T09:40:47;52404.78;;;-145.69;100.00
1726;BME280;41776;48.260;8.928;2023-05-01T09:43:23;52434.47;;;-145.69;100.00
1726;BME280;41776;48.260;8.928;2023-05-01T09:45:58;52408.75;;;-145.69;100.00
1726;BME280;41776;48.260;8.928;2023-05-01T09:48:26;52404.78;;;-145.69;100.00
1726;BME280;41776;48.260;8.928;2023-05-01T09:50:53;52418.63;;;-145.69;100.00
1726;BME280;41776;48.260;8.928;2023-05-01T09:53:32;52377.06;;;-145.69;100.00
1726;BME280;41776;48.260;8.928;2023-05-01T09:56:02;52390.91;;;-145.69;100.00
1726;BME280;41776;48.260;8.928;2023-05-01T09:58:28;52381.00;;;-145.69;100.00
1726;BME280;41776;48.260;8.928;2023-05-01T10:00:55;52396.84;;;-145.69;100.00
1726;BME280;41776;48.260;8.928;2023-05-01T10:03:21;52420.63;;;-145.69;100.00
1726;BME280;41776;48.260;8.928;2023-05-01T10:05:49;52394.88;;;-145.69;100.00
1726;BME280;41776;48.260;8.928;2023-05-01T10:08:16;52440.44;;;-145.69;100.00
1726;BME280;41776;48.260;8.928;2023-05-01T10:10:42;52422.59;;;-145.69;100.00
1726;BME280;41776;48.260;8.928;2023-05-01T10:13:13;52438.44;;;-145.69;100.00
1726;BME280;41776;48.260;8.928;2023-05-01T10:15:40;52400.81;;;-145.69;100.00
1726;BME280;41776;48.260;8.928;2023-05-01T10:18:08;52386.97;;;-145.69;100.00
1726;BME280;41776;48.260;8.928;2023-05-01T10:20:35;52452.31;;;-145.69;100.00
1726;BME280;41776;48.260;8.928;2023-05-01T10:23:03;52377.06;;;-145.69;100.00
1726;BME280;41776;48.260;8.928;2023-05-01T10:25:30;52428.53;;;-145.69;100.00
1726;BME280;41776;48.260;8.928;2023-05-01T10:27:58;52414.69;;;-145.69;100.00
1726;BME280;41776;48.260;8.928;2023-05-01T10:30:25;52430.53;;;-145.69;100.00
1726;BME280;41776;48.260;8.928;2023-05-01T10:32:51;52432.50;;;-145.69;100.00
1726;BME280;41776;48.260;8.928;2023-05-01T10:35:20;52388.94;;;-145.69;100.00
1726;BME280;41776;48.260;8.928;2023-05-01T10:37:57;52381.00;;;-145.69;100.00
1726;BME280;41776;48.260;8.928;2023-05-01T10:40:46;52422.59;;;-145.69;100.00
1726;BME280;41776;48.260;8.928;2023-05-01T10:43:17;52424.59;;;-145.69;100.00
1726;BME280;41776;48.260;8.928;2023-05-01T10:45:46;52412.69;;;-145.69;100.00
1726;BME280;41776;48.260;8.928;2023-05-01T10:48:53;52365.16;;;-145.69;100.00
1726;BME280;41776;48.260;8.928;2023-05-01T10:51:21;52375.06;;;-145.69;100.00
1726;BME280;41776;48.260;8.928;2023-05-01T10:53:49;52365.16;;;-145.69;100.00
1726;BME280;41776;48.260;8.928;2023-05-01T10:56:42;52402.78;;;-145.69;95.34
1726;BME280;41776;48.260;8.928;2023-05-01T10:59:09;52381.00;;;-145.69;99.35
1726;BME280;41776;48.260;8.928;2023-05-01T11:01:37;52384.97;;;-145.69;98.56
1726;BME280;41776;48.260;8.928;2023-05-01T11:04:05;52365.16;;;-145.69;100.00
1726;BME280;41776;48.260;8.928;2023-05-01T11:06:34;52363.19;;;-145.69;100.00
1726;BME280;41776;48.260;8.928;2023-05-01T11:09:01;52369.13;;;-145.69;97.51
1726;BME280;41776;48.260;8.928;2023-05-01T11:11:46;52396.84;;;-145.69;97.87
1726;BME280;41776;48.260;8.928;2023-05-01T11:14:15;52341.41;;;-145.69;90.85
1726;BME280;41776;48.260;8.928;2023-05-01T11:16:43;52339.44;;;-145.69;99.59
1726;BME280;41776;48.260;8.928;2023-05-01T11:19:45;52383.00;;;-145.69;100.00
1726;BME280;41776;48.260;8.928;2023-05-01T11:22:14;52369.13;;;-145.69;100.00
1726;BME280;41776;48.260;8.928;2023-05-01T11:24:41;52363.19;;;-145.69;100.00
1726;BME280;41776;48.260;8.928;2023-05-01T11:27:12;52369.13;;;-145.69;99.53
1726;BME280;41776;48.260;8.928;2023-05-01T11:29:39;52371.13;;;-145.69;100.00
1726;BME280;41776;48.260;8.928;2023-05-01T11:32:08;52327.53;;;-145.69;100.00
1726;BME280;41776;48.260;8.928;2023-05-01T11:34:34;52353.28;;;-145.69;100.00
1726;BME280;41776;48.260;8.928;2023-05-01T11:37:02;52398.84;;;-145.69;100.00
1726;BME280;41776;48.260;8.928;2023-05-01T11:39:29;52369.13;;;-145.69;100.00
1726;BME280;41776;48.260;8.928;2023-05-01T11:42:05;52331.50;;;-145.69;100.00
1726;BME280;41776;48.260;8.928;2023-05-01T11:44:34;52377.06;;;-145.69;100.00
1726;BME280;41776;48.260;8.928;2023-05-01T11:47:01;52381.00;;;-145.69;100.00
1726;BME280;41776;48.260;8.928;2023-05-01T11:49:28;52386.97;;;-145.69;100.00
1726;BME280;41776;48.260;8.928;2023-05-01T11:51:57;52353.28;;;-145.69;100.00
1726;BME280;41776;48.260;8.928;2023-05-01T11:54:25;52373.09;;;-145.69;100.00
1726;BME280;41776;48.260;8.928;2023-05-01T11:56:56;52381.00;;;-145.69;100.00
1726;BME280;41776;48.260;8.928;2023-05-01T11:59:24;52386.97;;;-145.69;100.00
1726;BME280;41776;48.260;8.928;2023-05-01T12:01:52;52357.25;;;-145.69;100.00
1726;BME280;41776;48.260;8.928;2023-05-01T12:04:23;52386.97;;;-145.69;100.00
1726;BME280;41776;48.260;8.928;2023-05-01T12:06:50;52384.97;;;-145.69;100.00
1726;BME280;41776;48.260;8.928;2023-05-01T12:09:18;52341.41;;;-145.69;97.27
1726;BME280;41776;48.260;8.928;2023-05-01T12:11:45;52321.59;;;-145.69;94.40
1726;BME280;41776;48.260;8.928;2023-05-01T12:14:13;52349.31;;;-145.69;95.85
1726;BME280;41776;48.260;8.928;2023-05-01T12:16:40;52329.53;;;-145.69;89.53
1726;BME280;41776;48.260;8.928;2023-05-01T12:19:12;52355.28;;;-145.69;83.72
1726;BME280;41776;48.260;8.928;2023-05-01T12:21:39;52369.13;;;-145.69;88.58
1726;BME280;41776;48.260;8.928;2023-05-01T12:24:09;52333.47;;;-145.69;83.80
1726;BME280;41776;48.260;8.928;2023-05-01T12:26:36;52299.81;;;-145.69;73.12
1726;BME280;41776;48.260;8.928;2023-05-01T12:29:04;52289.91;;;-145.69;60.15
1726;BME280;41776;48.260;8.928;2023-05-01T12:31:31;52252.28;;;-145.69;73.45
1726;BME280;41776;48.260;8.928;2023-05-01T12:34:01;52262.19;;;-145.69;53.88
1726;BME280;41776;48.260;8.928;2023-05-01T12:36:31;52282.00;;;-145.69;58.83
1726;BME280;41776;48.260;8.928;2023-05-01T12:39:00;52278.03;;;-145.69;54.13
1726;BME280;41776;48.260;8.928;2023-05-01T12:41:38;52260.22;;;-145.69;50.45
1726;BME280;41776;48.260;8.928;2023-05-01T12:44:16;52297.84;;;-145.69;57.55
1726;BME280;41776;48.260;8.928;2023-05-01T12:46:43;52329.53;;;-145.69;63.74